Time;durP1;ratioP1;P1;durP2;ratioP2;P2;SDS_P1;SDS_P2;PMS_P1;PMS_P2;Temp;Humidity;BMP_temperature;BMP_pressure;BME280_temperature;BME280_humidity;BME280_pressure;Samples;Min_cycle;Max_cycle;Signal;HPM_P1;HPM_P2
2021/03/14 00:00:08;;;;;;;0.77;0.70;;;5.60;99.90;;;;;;5067414;28;20541;-53
2021/03/14 00:02:33;;;;;;;0.82;0.70;;;5.60;99.90;;;;;;5068264;28;20223;-53
2021/03/14 00:04:59;;;;;;;1.33;0.97;;;5.60;99.90;;;;;;5085242;28;20245;-52
2021/03/14 00:07:24;;;;;;;0.80;0.67;;;5.60;99.90;;;;;;5077652;28;20299;-53
2021/03/14 00:09:50;;;;;;;1.03;0.80;;;5.70;99.90;;;;;;5083631;28;20190;-53
2021/03/14 00:12:16;;;;;;;2.13;1.00;;;5.80;99.90;;;;;;5084073;28;20179;-53
2021/03/14 00:14:41;;;;;;;1.03;0.93;;;5.50;99.90;;;;;;5073459;28;20190;-53
2021/03/14 00:17:07;;;;;;;0.80;0.60;;;5.60;99.90;;;;;;5078466;28;20535;-53
2021/03/14 00:19:34;;;;;;;1.00;0.70;;;5.60;99.90;;;;;;5072665;28;20210;-53
2021/03/14 00:22:00;;;;;;;0.90;0.70;;;5.70;99.90;;;;;;5067538;28;20187;-53
2021/03/14 00:24:25;;;;;;;0.80;0.70;;;6.00;99.90;;;;;;5070578;28;20208;-53
2021/03/14 00:26:51;;;;;;;1.67;0.90;;;6.00;99.90;;;;;;5081286;28;20598;-53
2021/03/14 00:29:17;;;;;;;2.30;1.23;;;5.80;99.90;;;;;;5080706;28;20458;-53
2021/03/14 00:31:42;;;;;;;1.07;0.70;;;6.00;99.90;;;;;;5084288;28;20186;-53
2021/03/14 00:34:08;;;;;;;1.17;0.90;;;6.00;99.90;;;;;;5082946;28;20632;-52
2021/03/14 00:36:33;;;;;;;2.00;1.00;;;6.00;99.90;;;;;;5086545;28;20187;-53
2021/03/14 00:38:59;;;;;;;2.30;1.03;;;6.00;99.90;;;;;;5084522;28;20237;-53
2021/03/14 00:41:25;;;;;;;1.23;0.70;;;5.80;99.90;;;;;;5067612;28;20260;-52
2021/03/14 00:43:50;;;;;;;1.87;0.80;;;5.70;99.90;;;;;;5067422;28;20290;-53
2021/03/14 00:46:16;;;;;;;0.77;0.77;;;5.90;99.90;;;;;;5071614;28;20186;-53
2021/03/14 00:48:43;;;;;;;1.43;1.00;;;5.90;99.90;;;;;;5085303;28;20255;-52
2021/03/14 00:51:08;;;;;;;2.35;0.80;;;5.70;99.90;;;;;;5082262;28;20252;-53
2021/03/14 00:53:34;;;;;;;0.90;0.77;;;5.60;99.90;;;;;;5082640;28;20190;-52
2021/03/14 00:55:59;;;;;;;1.47;0.73;;;5.80;99.90;;;;;;5081450;28;20246;-53
2021/03/14 00:58:25;;;;;;;1.20;0.83;;;5.50;99.90;;;;;;5076011;28;20675;-52
2021/03/14 01:00:51;;;;;;;0.83;0.80;;;5.30;99.90;;;;;;5082736;28;20645;-52
2021/03/14 01:03:16;;;;;;;1.00;0.90;;;5.30;99.90;;;;;;5070660;28;20676;-53
2021/03/14 01:05:42;;;;;;;4.90;0.80;;;5.60;99.90;;;;;;5066712;28;20295;-53
2021/03/14 01:08:08;;;;;;;0.70;0.60;;;5.40;99.90;;;;;;5068410;28;20249;-53
2021/03/14 01:10:34;;;;;;;0.70;0.70;;;5.30;99.90;;;;;;5071333;28;20457;-52
2021/03/14 01:12:59;;;;;;;0.80;0.80;;;5.40;99.90;;;;;;5080393;28;20274;-53
2021/03/14 01:15:25;;;;;;;1.13;0.67;;;5.20;99.90;;;;;;5083422;28;20452;-53
2021/03/14 01:17:51;;;;;;;0.67;0.60;;;5.20;99.90;;;;;;5090409;28;20213;-52
2021/03/14 01:20:19;;;;;;;0.70;0.60;;;5.30;99.90;;;;;;5081113;28;20285;-53
2021/03/14 01:22:45;;;;;;;1.30;0.70;;;5.30;99.90;;;;;;5070086;28;20186;-52
2021/03/14 01:25:12;;;;;;;0.90;0.60;;;5.10;99.90;;;;;;5069961;28;20205;-53
2021/03/14 01:27:39;;;;;;;0.60;0.50;;;5.00;99.90;;;;;;5078760;28;20703;-53
2021/03/14 01:30:06;;;;;;;1.35;0.60;;;5.30;99.90;;;;;;5080314;28;20182;-52
2021/03/14 01:32:32;;;;;;;0.60;0.50;;;5.20;99.90;;;;;;5084684;28;20201;-53
2021/03/14 01:34:58;;;;;;;0.73;0.57;;;5.00;99.90;;;;;;5069887;28;20189;-53
2021/03/14 01:37:24;;;;;;;0.70;0.60;;;5.10;99.90;;;;;;5071174;28;20209;-53
2021/03/14 01:39:50;;;;;;;0.70;0.50;;;4.80;99.90;;;;;;5078192;28;20190;-53
2021/03/14 01:42:25;;;;;;;0.70;0.60;;;4.90;99.90;;;;;;5073698;28;20265;-52
2021/03/14 01:44:50;;;;;;;0.70;0.50;;;5.00;99.90;;;;;;5073357;28;20228;-53
2021/03/14 01:47:16;;;;;;;0.60;0.50;;;4.80;99.90;;;;;;5078451;28;20209;-53
2021/03/14 01:49:42;;;;;;;0.90;0.80;;;4.90;99.90;;;;;;5086225;28;20194;-53
2021/03/14 01:52:08;;;;;;;2.03;0.60;;;5.20;99.90;;;;;;5075776;28;20814;-53
2021/03/14 01:54:33;;;;;;;1.30;0.63;;;5.30;99.90;;;;;;5069581;28;20240;-53
2021/03/14 01:56:59;;;;;;;0.80;0.70;;;5.30;99.90;;;;;;5070254;28;20222;-53
2021/03/14 01:59:26;;;;;;;0.70;0.60;;;5.10;99.90;;;;;;5070497;28;20493;-52
2021/03/14 02:01:52;;;;;;;0.60;0.50;;;5.20;99.90;;;;;;5085228;28;20181;-53
2021/03/14 02:04:17;;;;;;;0.60;0.50;;;5.00;99.90;;;;;;5089080;28;20297;-52
2021/03/14 02:06:43;;;;;;;0.70;0.50;;;5.00;99.90;;;;;;5089649;28;20452;-53
2021/03/14 02:09:08;;;;;;;0.87;0.53;;;5.20;99.90;;;;;;5089802;28;20913;-52
2021/03/14 02:11:38;;;;;;;0.70;0.50;;;5.00;99.90;;;;;;5089134;28;20274;-53
2021/03/14 02:14:05;;;;;;;0.70;0.50;;;5.30;99.90;;;;;;5080925;28;20574;-53
2021/03/14 02:16:39;;;;;;;0.60;0.50;;;5.30;99.90;;;;;;5089007;28;20265;-53
2021/03/14 02:19:11;;;;;;;0.75;0.60;;;5.30;99.90;;;;;;5082515;28;20198;-53
2021/03/14 02:21:37;;;;;;;0.70;0.50;;;5.20;99.90;;;;;;5080627;28;20576;-52
2021/03/14 02:24:04;;;;;;;0.60;0.60;;;5.30;99.90;;;;;;5088787;28;20576;-53
2021/03/14 02:26:43;;;;;;;0.60;0.50;;;5.10;99.90;;;;;;5081982;28;20182;-53
2021/03/14 02:29:10;;;;;;;0.60;0.60;;;5.20;99.90;;;;;;5070506;28;20230;-53
2021/03/14 02:31:37;;;;;;;0.60;0.50;;;5.00;99.90;;;;;;5085661;28;20240;-53
2021/03/14 02:34:08;;;;;;;0.60;0.60;;;5.40;99.90;;;;;;5089192;28;20187;-53
2021/03/14 02:36:37;;;;;;;0.60;0.50;;;5.10;99.90;;;;;;5079324;28;20221;-52
2021/03/14 02:39:06;;;;;;;0.70;0.50;;;5.20;99.90;;;;;;5086184;28;20197;-53
2021/03/14 02:41:33;;;;;;;0.88;0.65;;;5.10;99.90;;;;;;5072121;28;20273;-53
2021/03/14 02:44:00;;;;;;;0.60;0.50;;;5.20;99.90;;;;;;5085456;28;20213;-52
2021/03/14 02:46:28;;;;;;;1.25;0.60;;;5.00;99.90;;;;;;5077340;28;20768;-53
2021/03/14 02:48:57;;;;;;;0.70;0.70;;;5.20;99.90;;;;;;5072549;28;20263;-53
2021/03/14 02:51:23;;;;;;;0.98;0.60;;;5.00;99.90;;;;;;5088703;28;20647;-53
2021/03/14 02:53:49;;;;;;;1.00;0.70;;;5.00;99.90;;;;;;5081239;28;20654;-53
2021/03/14 02:56:15;;;;;;;0.60;0.60;;;5.00;99.90;;;;;;5088839;28;20650;-53
2021/03/14 02:58:42;;;;;;;0.60;0.60;;;5.20;99.90;;;;;;5086819;28;20263;-53
2021/03/14 03:01:09;;;;;;;0.80;0.60;;;5.00;99.90;;;;;;5077736;28;20194;-53
2021/03/14 03:03:36;;;;;;;0.80;0.60;;;5.00;99.90;;;;;;5072995;28;20183;-53
2021/03/14 03:06:02;;;;;;;0.70;0.70;;;5.00;99.90;;;;;;5080748;28;20261;-52
2021/03/14 03:08:29;;;;;;;2.42;0.80;;;5.00;99.90;;;;;;5072397;28;20211;-53
2021/03/14 03:10:57;;;;;;;0.90;0.90;;;4.90;99.90;;;;;;5076326;28;20238;-53
2021/03/14 03:13:23;;;;;;;2.00;0.80;;;4.80;99.90;;;;;;5086224;28;20209;-53
2021/03/14 03:15:50;;;;;;;0.70;0.70;;;5.00;99.90;;;;;;5080502;28;20194;-52
2021/03/14 03:18:18;;;;;;;1.25;0.65;;;5.10;99.90;;;;;;5071138;28;20313;-52
2021/03/14 03:20:44;;;;;;;0.77;0.70;;;4.90;99.90;;;;;;5074888;28;20188;-53
2021/03/14 03:23:11;;;;;;;1.20;0.70;;;5.00;99.90;;;;;;5074481;28;20189;-53
2021/03/14 03:25:36;;;;;;;1.40;0.75;;;5.00;99.90;;;;;;5075697;28;20217;-53
2021/03/14 03:28:03;;;;;;;0.60;0.50;;;4.90;99.90;;;;;;5074550;28;20705;-53
2021/03/14 03:30:29;;;;;;;0.70;0.63;;;4.70;99.90;;;;;;5087132;28;20571;-53
2021/03/14 03:32:55;;;;;;;0.80;0.80;;;4.60;99.90;;;;;;5086216;28;20181;-52
2021/03/14 03:35:24;;;;;;;1.10;0.80;;;4.70;99.90;;;;;;5075764;28;20192;-53
2021/03/14 03:37:50;;;;;;;2.85;1.10;;;4.50;99.90;;;;;;5087920;28;20584;-53
2021/03/14 03:40:19;;;;;;;0.70;0.60;;;4.90;99.90;;;;;;5086439;28;20700;-53
2021/03/14 03:43:10;;;;;;;0.90;0.80;;;4.80;99.90;;;;;;5083451;28;20680;-53
2021/03/14 03:45:42;;;;;;;0.80;0.70;;;4.90;99.90;;;;;;5076887;28;20204;-53
2021/03/14 03:48:12;;;;;;;0.85;0.80;;;4.70;99.90;;;;;;5067686;28;20205;-53
2021/03/14 03:50:38;;;;;;;0.80;0.70;;;4.60;99.90;;;;;;5071337;28;20178;-53
2021/03/14 03:53:06;;;;;;;0.70;0.60;;;4.60;99.90;;;;;;5079947;28;20185;-53
2021/03/14 03:55:32;;;;;;;0.70;0.60;;;4.60;99.90;;;;;;5081040;28;20229;-53
2021/03/14 03:57:58;;;;;;;0.80;0.80;;;4.70;99.90;;;;;;5074921;28;20213;-53
2021/03/14 04:00:24;;;;;;;2.13;1.40;;;4.80;99.90;;;;;;5088225;28;20182;-53
2021/03/14 04:02:51;;;;;;;1.00;0.80;;;4.80;99.90;;;;;;5076007;28;20533;-52
2021/03/14 04:05:18;;;;;;;0.77;0.77;;;4.80;99.90;;;;;;5087158;28;20954;-53
2021/03/14 04:07:48;;;;;;;0.80;0.70;;;4.60;99.90;;;;;;5074807;28;20594;-53
2021/03/14 04:10:17;;;;;;;0.80;0.80;;;4.60;99.90;;;;;;5067799;28;20186;-53
2021/03/14 04:12:45;;;;;;;0.98;0.88;;;4.90;99.90;;;;;;5071196;28;20259;-53
2021/03/14 04:15:13;;;;;;;1.15;0.80;;;4.40;99.90;;;;;;5068597;28;20194;-53
2021/03/14 04:17:40;;;;;;;0.85;0.80;;;4.60;99.90;;;;;;5068346;28;20562;-52
2021/03/14 04:20:12;;;;;;;2.60;0.82;;;4.80;99.90;;;;;;5074628;28;20189;-53
2021/03/14 04:22:38;;;;;;;1.00;0.90;;;4.60;99.90;;;;;;5087389;28;20603;-53
2021/03/14 04:25:06;;;;;;;0.73;0.70;;;4.50;99.90;;;;;;5079295;28;20584;-53
2021/03/14 04:27:32;;;;;;;0.77;0.73;;;4.60;99.90;;;;;;5087115;28;20198;-52
2021/03/14 04:29:59;;;;;;;1.23;1.13;;;4.60;99.90;;;;;;5087431;28;20262;-53
2021/03/14 04:32:25;;;;;;;0.80;0.80;;;4.60;99.90;;;;;;5084450;28;20185;-52
2021/03/14 04:34:52;;;;;;;0.80;0.70;;;4.80;99.90;;;;;;5071688;28;20191;-52
2021/03/14 04:37:19;;;;;;;1.00;0.85;;;4.70;99.90;;;;;;5082245;28;20689;-52
2021/03/14 04:39:45;;;;;;;0.80;0.80;;;4.70;99.90;;;;;;5084822;28;20196;-52
2021/03/14 04:42:11;;;;;;;0.70;0.70;;;4.60;99.90;;;;;;5075729;28;20228;-52
2021/03/14 04:44:38;;;;;;;3.58;1.23;;;4.60;99.90;;;;;;5070892;28;20289;-53
2021/03/14 04:47:05;;;;;;;3.92;1.00;;;4.70;99.90;;;;;;5086332;28;20686;-53
2021/03/14 04:49:32;;;;;;;0.77;0.73;;;4.70;99.90;;;;;;5090903;28;20560;-52
2021/03/14 04:51:58;;;;;;;2.15;0.98;;;4.70;99.90;;;;;;5086519;28;20178;-53
2021/03/14 04:54:24;;;;;;;0.90;0.85;;;4.90;99.90;;;;;;5080683;28;20297;-53
2021/03/14 04:56:52;;;;;;;2.45;0.70;;;4.80;99.90;;;;;;5075490;28;20220;-52
2021/03/14 04:59:18;;;;;;;2.13;0.90;;;4.70;99.90;;;;;;5080212;28;20712;-53
2021/03/14 05:01:46;;;;;;;1.10;0.90;;;4.50;99.90;;;;;;5079239;28;20190;-53
2021/03/14 05:04:14;;;;;;;1.38;0.85;;;4.70;99.90;;;;;;5081059;28;20252;-53
2021/03/14 05:06:42;;;;;;;1.30;0.70;;;4.70;99.90;;;;;;5087064;28;20212;-53
2021/03/14 05:09:08;;;;;;;1.00;0.82;;;4.60;99.90;;;;;;5086847;28;20257;-53
2021/03/14 05:11:35;;;;;;;1.42;0.90;;;4.60;99.90;;;;;;5091612;28;20275;-52
2021/03/14 05:14:03;;;;;;;1.58;0.90;;;4.60;99.90;;;;;;5081828;28;20551;-53
2021/03/14 05:16:29;;;;;;;2.00;0.85;;;4.40;99.90;;;;;;5090983;28;20197;-52
2021/03/14 05:18:58;;;;;;;1.35;0.80;;;4.50;99.90;;;;;;5090689;28;20209;-52
2021/03/14 05:21:24;;;;;;;1.10;1.00;;;4.40;99.90;;;;;;5082151;28;20185;-53
2021/03/14 05:23:50;;;;;;;3.20;1.10;;;4.60;99.90;;;;;;5091647;28;20185;-52
2021/03/14 05:26:22;;;;;;;1.10;1.00;;;4.40;99.90;;;;;;5089373;28;20181;-53
2021/03/14 05:28:48;;;;;;;1.52;1.10;;;4.40;99.90;;;;;;5077546;28;20204;-52
2021/03/14 05:31:33;;;;;;;0.70;0.70;;;4.60;99.90;;;;;;5079442;28;20176;-53
2021/03/14 05:34:05;;;;;;;1.27;0.70;;;4.50;99.90;;;;;;5085116;28;20259;-53
2021/03/14 05:36:31;;;;;;;0.70;0.70;;;4.30;99.90;;;;;;5091743;28;20773;-53
2021/03/14 05:38:59;;;;;;;0.80;0.80;;;4.60;99.90;;;;;;5089880;28;20296;-53
2021/03/14 05:41:25;;;;;;;1.15;0.77;;;4.40;99.90;;;;;;5090253;28;20245;-52
2021/03/14 05:43:52;;;;;;;0.70;0.70;;;4.30;99.90;;;;;;5085964;28;20693;-52
2021/03/14 05:46:18;;;;;;;1.00;0.90;;;4.10;99.90;;;;;;5080211;28;20427;-53
2021/03/14 05:48:44;;;;;;;1.55;0.70;;;4.20;99.90;;;;;;5088862;28;20223;-53
2021/03/14 05:51:10;;;;;;;1.40;0.73;;;4.30;99.90;;;;;;5086582;28;20559;-53
2021/03/14 05:53:40;;;;;;;1.00;0.70;;;4.40;99.90;;;;;;5086252;28;20188;-53
2021/03/14 05:56:09;;;;;;;1.85;0.80;;;4.50;99.90;;;;;;5073658;28;20523;-53
2021/03/14 05:58:36;;;;;;;0.90;0.77;;;4.40;99.90;;;;;;5075074;28;20202;-53
2021/03/14 06:01:08;;;;;;;1.92;1.00;;;4.60;99.90;;;;;;5076168;28;20509;-53
2021/03/14 06:03:36;;;;;;;1.50;0.73;;;4.30;99.90;;;;;;5076441;28;20450;-53
2021/03/14 06:06:03;;;;;;;1.33;0.85;;;4.60;99.90;;;;;;5085427;28;20577;-53
2021/03/14 06:08:30;;;;;;;1.42;0.80;;;4.70;99.90;;;;;;5083879;28;20603;-52
2021/03/14 06:10:58;;;;;;;0.95;0.70;;;4.70;99.90;;;;;;5074358;28;20186;-52
2021/03/14 06:13:24;;;;;;;1.13;1.02;;;4.70;99.90;;;;;;5080200;28;20181;-53
2021/03/14 06:15:50;;;;;;;3.20;0.80;;;4.70;99.90;;;;;;5088945;28;20234;-53
2021/03/14 06:18:16;;;;;;;2.70;0.70;;;4.60;99.90;;;;;;5075213;28;20244;-53
2021/03/14 06:20:43;;;;;;;2.23;1.10;;;5.00;99.90;;;;;;5084730;28;20467;-53
2021/03/14 06:23:11;;;;;;;1.70;0.90;;;4.90;99.90;;;;;;5078474;28;20501;-53
2021/03/14 06:25:38;;;;;;;1.55;1.00;;;5.10;99.90;;;;;;5085555;28;20202;-52
2021/03/14 06:28:04;;;;;;;2.28;1.05;;;5.00;99.90;;;;;;5083691;28;21675;-53
2021/03/14 06:30:32;;;;;;;1.48;1.35;;;4.90;99.90;;;;;;5078317;28;20191;-53
2021/03/14 06:33:10;;;;;;;1.90;0.90;;;4.90;99.90;;;;;;5079407;28;20234;-53
2021/03/14 06:35:54;;;;;;;1.23;1.10;;;4.90;99.90;;;;;;5078789;28;20239;-53
2021/03/14 06:38:26;;;;;;;2.00;1.15;;;5.00;99.90;;;;;;5080446;28;20212;-53
2021/03/14 06:40:59;;;;;;;2.30;1.20;;;5.00;99.90;;;;;;5082594;28;20234;-52
2021/03/14 06:43:34;;;;;;;4.05;1.10;;;5.10;99.90;;;;;;5084833;28;20494;-52
2021/03/14 06:46:01;;;;;;;4.03;1.20;;;5.00;99.90;;;;;;5079410;28;20209;-54
2021/03/14 06:48:28;;;;;;;1.08;0.98;;;5.30;99.90;;;;;;5078485;28;21548;-55
2021/03/14 06:50:54;;;;;;;1.38;1.25;;;5.30;99.90;;;;;;5080749;28;20181;-56
2021/03/14 06:53:23;;;;;;;1.15;1.05;;;5.30;99.90;;;;;;5078295;28;20617;-55
2021/03/14 06:56:03;;;;;;;2.63;1.10;;;5.40;99.90;;;;;;5078273;28;20199;-56
2021/03/14 06:58:34;;;;;;;2.05;1.17;;;5.60;99.90;;;;;;5079697;28;20676;-53
2021/03/14 07:01:29;;;;;;;5.68;1.40;;;5.60;99.90;;;;;;5060347;28;20194;-53
2021/03/14 07:03:55;;;;;;;2.55;1.00;;;5.40;99.90;;;;;;5063122;28;20195;-53
2021/03/14 07:06:28;;;;;;;1.90;1.50;;;5.40;99.90;;;;;;5072418;28;20721;-53
2021/03/14 07:09:08;;;;;;;1.80;1.25;;;5.50;99.90;;;;;;5081905;28;21353;-54
2021/03/14 07:11:42;;;;;;;2.65;1.10;;;5.70;99.90;;;;;;5079728;28;20182;-53
2021/03/14 07:14:13;;;;;;;1.98;1.30;;;5.80;99.90;;;;;;5077323;28;20186;-55
2021/03/14 07:16:59;;;;;;;3.45;1.20;;;5.70;99.90;;;;;;5083650;28;20650;-53
2021/03/14 07:19:31;;;;;;;1.55;1.45;;;5.70;99.90;;;;;;5077200;28;20682;-53
2021/03/14 07:22:00;;;;;;;1.70;1.40;;;5.70;99.90;;;;;;5080298;28;20195;-54
2021/03/14 07:24:43;;;;;;;1.65;1.15;;;5.80;99.90;;;;;;5079501;28;20207;-52
2021/03/14 07:27:14;;;;;;;1.80;1.20;;;6.60;99.90;;;;;;5082383;28;20234;-52
2021/03/14 07:29:40;;;;;;;3.58;1.63;;;7.10;99.90;;;;;;5079824;28;20184;-52
2021/03/14 07:32:09;;;;;;;3.15;1.20;;;7.30;99.90;;;;;;5074984;28;20860;-51
2021/03/14 07:34:35;;;;;;;3.75;1.80;;;7.70;99.90;;;;;;5075303;28;20192;-51
2021/03/14 07:37:01;;;;;;;2.10;1.57;;;8.10;99.60;;;;;;5081415;28;20218;-52
2021/03/14 07:39:27;;;;;;;1.30;1.00;;;8.80;98.50;;;;;;5072552;28;20197;-52
2021/03/14 07:41:53;;;;;;;1.57;1.00;;;9.30;95.80;;;;;;5077609;28;20715;-51
2021/03/14 07:44:22;;;;;;;1.33;1.00;;;10.10;94.20;;;;;;5075488;28;20229;-51
2021/03/14 07:46:49;;;;;;;1.88;1.10;;;10.60;92.10;;;;;;5080307;28;20198;-51
2021/03/14 07:49:17;;;;;;;4.13;2.00;;;10.70;90.80;;;;;;5079782;28;20188;-51
2021/03/14 07:51:45;;;;;;;3.25;0.90;;;10.20;91.00;;;;;;5079827;28;20263;-53
2021/03/14 07:54:16;;;;;;;1.33;1.02;;;9.90;92.30;;;;;;5082868;28;20631;-53
2021/03/14 07:56:45;;;;;;;2.20;1.20;;;9.60;92.90;;;;;;5098458;28;20196;-52
2021/03/14 07:59:11;;;;;;;1.52;1.40;;;8.60;93.90;;;;;;5074167;28;20216;-52
2021/03/14 08:01:38;;;;;;;2.07;1.23;;;8.60;95.50;;;;;;5079450;28;20641;-52
2021/03/14 08:04:31;;;;;;;2.85;1.20;;;8.30;95.50;;;;;;5080693;28;20208;-52
2021/03/14 08:06:57;;;;;;;1.75;1.17;;;7.60;96.10;;;;;;5081165;28;20180;-52
2021/03/14 08:09:43;;;;;;;2.00;1.07;;;7.70;96.40;;;;;;5088156;28;20265;-52
2021/03/14 08:12:26;;;;;;;3.35;1.20;;;7.40;96.50;;;;;;5084492;28;20444;-53
2021/03/14 08:14:54;;;;;;;3.42;1.38;;;7.50;97.00;;;;;;5080693;28;20191;-53
2021/03/14 08:17:23;;;;;;;3.65;1.40;;;7.10;97.10;;;;;;5077948;28;20223;-52
2021/03/14 08:19:50;;;;;;;4.82;1.25;;;7.00;97.60;;;;;;5084900;28;20184;-52
2021/03/14 08:22:37;;;;;;;2.03;1.60;;;7.10;98.00;;;;;;5087683;28;20206;-52
2021/03/14 08:25:22;;;;;;;3.15;1.20;;;7.20;97.90;;;;;;5072681;28;20265;-52
2021/03/14 08:27:59;;;;;;;3.30;0.95;;;7.50;97.60;;;;;;5082025;28;20200;-52
2021/03/14 08:30:31;;;;;;;4.07;1.20;;;7.50;97.30;;;;;;5088967;28;20283;-52
2021/03/14 08:33:16;;;;;;;2.88;1.40;;;7.50;97.40;;;;;;5087638;28;20192;-52
2021/03/14 08:35:46;;;;;;;3.30;1.13;;;7.70;97.50;;;;;;5081777;28;20185;-52
2021/03/14 08:38:32;;;;;;;3.38;1.42;;;7.80;97.40;;;;;;5087439;28;20222;-52
2021/03/14 08:41:22;;;;;;;3.05;1.48;;;8.00;97.70;;;;;;5076273;28;20187;-52
2021/03/14 08:44:02;;;;;;;2.13;1.10;;;8.00;97.10;;;;;;5078948;28;20276;-52
2021/03/14 08:46:46;;;;;;;1.40;1.30;;;8.10;97.20;;;;;;5081612;28;20528;-52
2021/03/14 08:49:17;;;;;;;3.85;1.42;;;8.40;96.30;;;;;;5089637;28;20182;-53
2021/03/14 08:51:43;;;;;;;5.80;1.27;;;8.50;96.10;;;;;;5076870;28;20220;-52
2021/03/14 08:54:09;;;;;;;3.90;1.23;;;8.50;95.90;;;;;;5082630;28;20556;-52
2021/03/14 08:56:35;;;;;;;4.32;1.15;;;8.40;95.00;;;;;;5084139;28;20192;-52
2021/03/14 08:59:05;;;;;;;2.25;1.17;;;8.40;94.80;;;;;;5079702;28;20673;-52
2021/03/14 09:01:31;;;;;;;1.35;0.80;;;8.60;94.80;;;;;;5084353;28;20287;-52
2021/03/14 09:03:57;;;;;;;2.38;1.00;;;9.10;95.20;;;;;;5075078;28;20680;-52
2021/03/14 09:06:30;;;;;;;1.40;1.30;;;8.70;93.30;;;;;;5088270;28;20193;-52
2021/03/14 09:09:01;;;;;;;1.65;1.00;;;8.50;93.90;;;;;;5085126;28;20265;-52
2021/03/14 09:11:53;;;;;;;3.30;1.40;;;8.20;93.90;;;;;;5090695;28;20249;-52
2021/03/14 09:14:28;;;;;;;2.95;0.95;;;8.50;94.80;;;;;;5070551;28;20195;-52
2021/03/14 09:16:56;;;;;;;2.05;1.00;;;8.40;94.40;;;;;;5072948;28;20184;-52
2021/03/14 09:19:29;;;;;;;1.42;1.10;;;8.50;94.60;;;;;;5073920;28;20246;-52
2021/03/14 09:22:01;;;;;;;2.10;1.35;;;8.30;94.80;;;;;;5079280;28;20726;-52
2021/03/14 09:24:37;;;;;;;1.85;1.27;;;8.50;94.80;;;;;;5075502;28;20296;-52
2021/03/14 09:27:11;;;;;;;1.95;1.02;;;8.40;93.70;;;;;;5086683;28;20219;-52
2021/03/14 09:29:47;;;;;;;2.33;1.40;;;8.90;93.40;;;;;;5072737;28;20266;-53
2021/03/14 09:32:20;;;;;;;4.35;1.05;;;8.60;93.20;;;;;;5075878;28;20177;-52
2021/03/14 09:34:47;;;;;;;2.58;1.15;;;9.00;93.80;;;;;;5083870;28;20203;-52
2021/03/14 09:37:31;;;;;;;3.42;0.88;;;9.10;92.30;;;;;;5083354;28;20205;-53
2021/03/14 09:40:15;;;;;;;1.50;0.90;;;9.50;92.30;;;;;;5074178;28;20574;-53
2021/03/14 09:42:46;;;;;;;1.83;1.25;;;9.40;92.50;;;;;;5088408;28;20189;-52
2021/03/14 09:45:12;;;;;;;1.20;1.00;;;9.40;91.50;;;;;;5086264;28;20201;-52
2021/03/14 09:48:08;;;;;;;1.37;0.80;;;9.70;91.60;;;;;;5081059;28;20200;-52
2021/03/14 09:50:41;;;;;;;1.70;1.15;;;10.00;90.00;;;;;;5080443;28;20279;-52
2021/03/14 09:53:08;;;;;;;2.75;1.10;;;9.90;90.20;;;;;;5080112;28;20174;-52
2021/03/14 09:55:39;;;;;;;0.93;0.90;;;10.00;89.20;;;;;;5081923;28;20208;-51
2021/03/14 09:58:13;;;;;;;4.43;1.00;;;9.90;90.30;;;;;;5075734;28;20231;-51
2021/03/14 10:00:39;;;;;;;1.38;0.85;;;9.80;90.50;;;;;;5081990;28;20590;-52
2021/03/14 10:03:08;;;;;;;1.65;0.80;;;9.30;91.00;;;;;;5083083;28;20309;-52
2021/03/14 10:05:43;;;;;;;2.13;1.00;;;9.30;91.20;;;;;;5078129;28;20218;-52
2021/03/14 10:08:10;;;;;;;3.70;1.23;;;9.00;91.40;;;;;;5079878;28;20688;-52
2021/03/14 10:10:38;;;;;;;2.88;1.00;;;8.60;91.60;;;;;;5086692;28;20184;-52
2021/03/14 10:13:06;;;;;;;1.50;1.00;;;8.60;91.80;;;;;;5078332;28;20204;-52
2021/03/14 10:15:32;;;;;;;1.75;1.02;;;8.00;91.80;;;;;;5077008;28;20234;-52
2021/03/14 10:17:58;;;;;;;1.50;1.00;;;8.20;93.00;;;;;;5081280;28;20205;-52
2021/03/14 10:20:23;;;;;;;1.40;0.90;;;8.10;93.70;;;;;;5077839;28;20709;-52
2021/03/14 10:23:01;;;;;;;3.97;1.50;;;8.50;93.90;;;;;;5079293;28;20458;-52
2021/03/14 10:25:33;;;;;;;1.80;0.90;;;8.20;94.40;;;;;;5076756;28;20215;-52
2021/03/14 10:28:12;;;;;;;2.00;1.08;;;8.30;94.10;;;;;;5085844;28;20200;-52
2021/03/14 10:30:43;;;;;;;3.42;1.58;;;8.50;93.50;;;;;;5089759;28;20184;-52
2021/03/14 10:33:14;;;;;;;1.00;0.70;;;8.50;92.60;;;;;;5077689;28;20199;-52
2021/03/14 10:35:41;;;;;;;2.35;0.90;;;8.60;91.90;;;;;;5080232;28;20187;-52
2021/03/14 10:38:21;;;;;;;1.88;1.17;;;8.60;92.30;;;;;;5078873;28;20200;-52
2021/03/14 10:40:47;;;;;;;2.88;0.90;;;8.80;91.40;;;;;;5083890;28;20496;-53
2021/03/14 10:43:24;;;;;;;2.55;1.50;;;8.90;91.10;;;;;;5074757;28;20189;-52
2021/03/14 10:45:52;;;;;;;2.35;0.98;;;8.80;90.70;;;;;;5071153;28;20299;-51
2021/03/14 10:48:24;;;;;;;2.85;1.00;;;8.90;91.00;;;;;;5081576;28;20201;-50
2021/03/14 10:50:57;;;;;;;3.13;1.00;;;9.10;91.80;;;;;;5080762;28;20184;-50
2021/03/14 10:53:23;;;;;;;1.35;0.95;;;8.80;90.90;;;;;;5095019;28;20195;-50
2021/03/14 10:55:49;;;;;;;1.43;1.00;;;8.90;91.70;;;;;;5081483;28;20271;-51
2021/03/14 10:58:17;;;;;;;1.47;0.90;;;9.00;91.30;;;;;;5078347;28;20228;-53
2021/03/14 11:00:51;;;;;;;2.20;0.98;;;9.60;91.00;;;;;;5085132;28;20219;-53
2021/03/14 11:03:25;;;;;;;3.85;0.90;;;10.40;88.40;;;;;;5086169;28;20224;-54
2021/03/14 11:06:07;;;;;;;1.42;1.23;;;11.20;84.30;;;;;;5078006;28;20762;-52
2021/03/14 11:09:01;;;;;;;3.00;0.98;;;11.80;81.30;;;;;;5073950;28;20207;-52
2021/03/14 11:11:48;;;;;;;1.63;0.98;;;11.90;80.00;;;;;;5074676;28;20193;-52
2021/03/14 11:14:39;;;;;;;4.10;1.05;;;11.80;77.80;;;;;;5081284;28;20184;-52
2021/03/14 11:17:09;;;;;;;1.90;0.90;;;11.00;78.70;;;;;;5078461;28;20215;-52
2021/03/14 11:19:37;;;;;;;3.80;1.05;;;10.80;80.70;;;;;;5080429;28;20208;-52
2021/03/14 11:22:02;;;;;;;3.85;1.00;;;10.70;77.60;;;;;;5081436;28;20181;-51
2021/03/14 11:24:28;;;;;;;1.30;0.83;;;10.40;77.30;;;;;;5079032;28;20213;-51
2021/03/14 11:26:54;;;;;;;1.83;1.07;;;9.90;79.10;;;;;;5080515;28;20496;-52
2021/03/14 11:29:22;;;;;;;1.43;1.20;;;9.70;80.70;;;;;;5078918;28;20591;-52
2021/03/14 11:31:48;;;;;;;2.10;1.00;;;9.60;80.00;;;;;;5079198;28;20439;-51
2021/03/14 11:34:14;;;;;;;2.60;1.20;;;9.80;81.50;;;;;;5077200;28;20284;-52
2021/03/14 11:36:39;;;;;;;1.52;1.00;;;10.20;78.20;;;;;;5081866;28;20962;-52
2021/03/14 11:39:06;;;;;;;4.10;1.20;;;10.40;76.40;;;;;;5073160;28;20196;-53
2021/03/14 11:41:32;;;;;;;2.10;0.90;;;10.60;78.10;;;;;;5072409;28;20197;-51
2021/03/14 11:43:58;;;;;;;1.83;0.90;;;10.20;75.60;;;;;;5075398;28;20557;-50
2021/03/14 11:46:25;;;;;;;2.00;1.67;;;10.00;77.40;;;;;;5080695;28;20251;-51
2021/03/14 11:48:50;;;;;;;2.53;1.60;;;9.80;76.90;;;;;;5076427;28;20208;-51
2021/03/14 11:51:16;;;;;;;3.30;1.30;;;9.80;78.20;;;;;;5080888;28;20177;-52
2021/03/14 11:53:42;;;;;;;1.23;0.90;;;9.70;78.00;;;;;;5080260;28;20694;-53
2021/03/14 11:56:07;;;;;;;2.10;1.20;;;9.70;78.50;;;;;;5076490;28;20246;-52
2021/03/14 11:58:33;;;;;;;2.13;1.03;;;9.60;78.50;;;;;;5075376;28;20260;-51
2021/03/14 12:00:58;;;;;;;4.50;1.03;;;9.60;78.40;;;;;;5077659;28;20220;-50
2021/03/14 12:03:24;;;;;;;2.00;1.00;;;9.30;78.20;;;;;;5077333;28;20311;-51
2021/03/14 12:05:50;;;;;;;4.03;1.30;;;9.20;80.50;;;;;;5074768;28;20235;-53
2021/03/14 12:08:16;;;;;;;2.53;1.30;;;9.40;80.50;;;;;;5094009;28;20196;-50
2021/03/14 12:10:41;;;;;;;3.60;1.30;;;9.40;80.60;;;;;;5079943;28;20234;-51
2021/03/14 12:13:07;;;;;;;1.40;1.17;;;9.10;80.80;;;;;;5081521;28;20223;-51
2021/03/14 12:15:33;;;;;;;1.77;1.00;;;9.50;82.10;;;;;;5073673;28;20271;-50
2021/03/14 12:17:58;;;;;;;2.80;1.33;;;9.40;83.20;;;;;;5074638;28;20575;-53
2021/03/14 12:20:24;;;;;;;2.70;2.50;;;9.40;83.80;;;;;;5077845;28;20235;-52
2021/03/14 12:22:50;;;;;;;2.93;1.13;;;9.30;85.30;;;;;;5074069;28;20192;-51
2021/03/14 12:25:15;;;;;;;1.63;0.83;;;9.30;87.60;;;;;;5079656;28;20476;-51
2021/03/14 12:27:41;;;;;;;1.77;1.03;;;9.00;90.20;;;;;;5078870;28;20200;-53
2021/03/14 12:30:07;;;;;;;1.10;0.90;;;8.90;92.00;;;;;;5073694;28;20181;-52
2021/03/14 12:32:33;;;;;;;3.47;1.55;;;8.70;92.70;;;;;;5076263;28;20204;-51
2021/03/14 12:34:59;;;;;;;2.13;1.17;;;8.60;93.70;;;;;;5072671;28;20254;-50
2021/03/14 12:37:24;;;;;;;1.87;1.00;;;8.70;94.10;;;;;;5076239;28;20212;-50
2021/03/14 12:39:50;;;;;;;1.43;1.00;;;8.50;94.40;;;;;;5078086;28;20185;-50
2021/03/14 12:42:15;;;;;;;1.57;1.27;;;8.10;96.10;;;;;;5073506;28;20557;-49
2021/03/14 12:44:41;;;;;;;1.70;1.00;;;8.00;96.60;;;;;;5077671;28;20574;-50
2021/03/14 12:47:07;;;;;;;1.37;0.80;;;8.10;97.10;;;;;;5075382;28;20214;-49
2021/03/14 12:49:32;;;;;;;1.20;1.00;;;7.80;97.90;;;;;;5077376;28;20279;-49
2021/03/14 12:51:58;;;;;;;1.80;1.37;;;7.90;98.40;;;;;;5073685;28;20189;-50
2021/03/14 12:54:24;;;;;;;1.97;1.30;;;7.50;99.40;;;;;;5075272;28;20207;-50
2021/03/14 12:56:49;;;;;;;1.60;1.07;;;7.60;99.90;;;;;;5078424;28;20283;-50
2021/03/14 12:59:15;;;;;;;1.70;1.00;;;7.40;99.90;;;;;;5077354;28;20676;-50
2021/03/14 13:01:41;;;;;;;3.20;1.10;;;7.30;99.90;;;;;;5073082;28;20184;-50
2021/03/14 13:04:06;;;;;;;2.47;1.23;;;7.20;99.90;;;;;;5079277;28;20177;-52